Portada
METAR-TAF:

METAR-TAF

Aeroports :

Kuching, Malàisia

latitud: 01-29N, longitud: 110-20E, altitud: 27 m

Observació

L'informe es va fer fa 39 minuts, a les 04:00 UTC
Vent 6 kt del Est, variant entre Nord i Sud/Sud-Est
Temperatura 31°C
Humitat 71%
Pressió 1010 hPa
Visibilitat 10 km o més
Escasses núvols a una alçada de 1500 ft, Cumulonimbus.
Núvols disperses a una alçada de 1600 ft
Cel ennuvolat a una alçada de 30000 ft

METAR: WBGG 210400Z 09006KT 010V150 9999 FEW015CB SCT016 BKN300 31/25 Q1010 NOSIG

Hora: 12:39 (04:39 UTC)

Pronòstic

L'informe es va fer fa 5 hores i 39 minuts, a les 23:00 UTC
Pronòstic vàlid del 21 a les 00 UTC al 22 a les 00 UTC
Vent 3 kt amb direcció variable
Visibilitat 10 km o més
Núvols disperses a una alçada de 2000 ft
Temporalment
l' 21 a les 06 UTC al 21 a les 10 UTC
Visibilitat: 4000 m
Escasses núvols a una alçada de 1500 ft, Cumulonimbus.
tempesta, pluja

TAF: WBGG 202300Z 2100/2200 VRB03KT 9999 SCT020 TEMPO 2106/2110 4000 TSRA FEW015CB

Observacions i pronòstics meteorològics de més de 4000 aeroports (METAR i TAF).

Les estacions disponibles són els punts grocs i vermells al mapa.

Posi el ratolí al punt desitjat per veure el nom de l'estació.

Feu clic per veure les observacions i els pronòstics meteorològics.

Per canviar el mapa: feu clic els botons verds amb una creu de color negre per apropar; al botó verd amb un guió per allunyar la imatge; o en les fletxes verdes per a mapes adjacents.


METAR-TAF: